sensor_id;sensor_type;location;lat;lon;timestamp;temperature;humidity
49242;DHT22;35079;52.704;13.814;2023-04-03T00:01:07;0.90;99.90
49242;DHT22;35079;52.704;13.814;2023-04-03T00:03:33;0.80;99.90
49242;DHT22;35079;52.704;13.814;2023-04-03T00:05:59;0.80;99.90
49242;DHT22;35079;52.704;13.814;2023-04-03T00:08:24;0.80;99.90
49242;DHT22;35079;52.704;13.814;2023-04-03T00:10:50;0.80;99.90
49242;DHT22;35079;52.704;13.814;2023-04-03T00:13:16;0.90;99.90
49242;DHT22;35079;52.704;13.814;2023-04-03T00:15:43;0.70;99.90
49242;DHT22;35079;52.704;13.814;2023-04-03T00:18:08;0.80;99.90
49242;DHT22;35079;52.704;13.814;2023-04-03T00:20:34;0.70;99.90
49242;DHT22;35079;52.704;13.814;2023-04-03T00:23:01;0.70;99.90
49242;DHT22;35079;52.704;13.814;2023-04-03T00:25:27;0.60;99.90
49242;DHT22;35079;52.704;13.814;2023-04-03T00:27:52;0.70;99.90
49242;DHT22;35079;52.704;13.814;2023-04-03T00:30:20;0.70;99.90
49242;DHT22;35079;52.704;13.814;2023-04-03T00:32:48;0.60;99.90
49242;DHT22;35079;52.704;13.814;2023-04-03T00:35:14;0.60;99.90
49242;DHT22;35079;52.704;13.814;2023-04-03T00:37:42;0.80;99.90
49242;DHT22;35079;52.704;13.814;2023-04-03T00:40:08;0.60;99.90
49242;DHT22;35079;52.704;13.814;2023-04-03T00:42:36;0.60;99.90
49242;DHT22;35079;52.704;13.814;2023-04-03T00:47:29;0.50;99.90
49242;DHT22;35079;52.704;13.814;2023-04-03T00:49:56;0.60;99.90
49242;DHT22;35079;52.704;13.814;2023-04-03T00:52:27;0.50;99.90
49242;DHT22;35079;52.704;13.814;2023-04-03T00:54:58;0.50;99.90
49242;DHT22;35079;52.704;13.814;2023-04-03T00:57:26;0.50;99.90
49242;DHT22;35079;52.704;13.814;2023-04-03T00:59:57;0.40;99.90
49242;DHT22;35079;52.704;13.814;2023-04-03T01:02:24;0.40;99.90
49242;DHT22;35079;52.704;13.814;2023-04-03T01:04:51;0.40;99.90
49242;DHT22;35079;52.704;13.814;2023-04-03T01:07:23;0.40;99.90
49242;DHT22;35079;52.704;13.814;2023-04-03T01:09:52;0.30;99.90
49242;DHT22;35079;52.704;13.814;2023-04-03T01:14:52;0.30;99.90
49242;DHT22;35079;52.704;13.814;2023-04-03T01:25:48;0.20;99.90
49242;DHT22;35079;52.704;13.814;2023-04-03T01:28:18;0.20;99.90
49242;DHT22;35079;52.704;13.814;2023-04-03T01:30:56;0.30;99.90
49242;DHT22;35079;52.704;13.814;2023-04-03T01:33:23;0.20;99.90
49242;DHT22;35079;52.704;13.814;2023-04-03T01:35:49;0.10;99.90
49242;DHT22;35079;52.704;13.814;2023-04-03T01:38:15;0.10;99.90
49242;DHT22;35079;52.704;13.814;2023-04-03T01:40:41;0.10;99.90
49242;DHT22;35079;52.704;13.814;2023-04-03T01:43:06;0.20;99.90
49242;DHT22;35079;52.704;13.814;2023-04-03T01:45:32;0.20;99.90
49242;DHT22;35079;52.704;13.814;2023-04-03T01:47:58;0.00;99.90
49242;DHT22;35079;52.704;13.814;2023-04-03T01:50:23;0.20;99.90
49242;DHT22;35079;52.704;13.814;2023-04-03T01:52:49;0.00;99.90
49242;DHT22;35079;52.704;13.814;2023-04-03T01:55:14;0.10;99.90
49242;DHT22;35079;52.704;13.814;2023-04-03T01:57:40;0.10;99.90
49242;DHT22;35079;52.704;13.814;2023-04-03T02:00:06;0.10;99.90
49242;DHT22;35079;52.704;13.814;2023-04-03T02:02:33;0.00;99.90
49242;DHT22;35079;52.704;13.814;2023-04-03T02:04:58;0.00;99.90
49242;DHT22;35079;52.704;13.814;2023-04-03T02:07:24;0.00;99.90
49242;DHT22;35079;52.704;13.814;2023-04-03T02:09:51;0.00;99.90
49242;DHT22;35079;52.704;13.814;2023-04-03T02:12:16;-0.10;99.90
49242;DHT22;35079;52.704;13.814;2023-04-03T02:14:42;0.00;99.90
49242;DHT22;35079;52.704;13.814;2023-04-03T02:17:08;0.00;99.90
49242;DHT22;35079;52.704;13.814;2023-04-03T02:19:37;0.00;99.90
49242;DHT22;35079;52.704;13.814;2023-04-03T02:22:03;0.00;99.90
49242;DHT22;35079;52.704;13.814;2023-04-03T02:24:29;0.00;99.90
49242;DHT22;35079;52.704;13.814;2023-04-03T02:26:54;0.10;99.90
49242;DHT22;35079;52.704;13.814;2023-04-03T02:29:20;0.00;99.90
49242;DHT22;35079;52.704;13.814;2023-04-03T02:31:46;0.20;99.90
49242;DHT22;35079;52.704;13.814;2023-04-03T02:34:11;0.00;99.90
49242;DHT22;35079;52.704;13.814;2023-04-03T02:36:37;0.00;99.90
49242;DHT22;35079;52.704;13.814;2023-04-03T02:39:03;0.00;99.90
49242;DHT22;35079;52.704;13.814;2023-04-03T02:41:29;0.00;99.90
49242;DHT22;35079;52.704;13.814;2023-04-03T02:44:04;0.10;99.90
49242;DHT22;35079;52.704;13.814;2023-04-03T02:46:31;0.10;99.90
49242;DHT22;35079;52.704;13.814;2023-04-03T02:48:57;0.00;99.90
49242;DHT22;35079;52.704;13.814;2023-04-03T02:51:22;0.00;99.90
49242;DHT22;35079;52.704;13.814;2023-04-03T02:53:49;0.00;99.90
49242;DHT22;35079;52.704;13.814;2023-04-03T02:56:15;-0.10;99.90
49242;DHT22;35079;52.704;13.814;2023-04-03T02:58:41;-0.10;99.90
49242;DHT22;35079;52.704;13.814;2023-04-03T03:01:06;0.10;99.90
49242;DHT22;35079;52.704;13.814;2023-04-03T03:03:32;-0.10;99.90
49242;DHT22;35079;52.704;13.814;2023-04-03T03:06:10;-0.10;99.90
49242;DHT22;35079;52.704;13.814;2023-04-03T03:08:36;-0.10;99.90
49242;DHT22;35079;52.704;13.814;2023-04-03T03:11:03;-0.10;99.90
49242;DHT22;35079;52.704;13.814;2023-04-03T03:13:29;-0.10;99.90
49242;DHT22;35079;52.704;13.814;2023-04-03T03:15:54;-0.10;99.90
49242;DHT22;35079;52.704;13.814;2023-04-03T03:18:20;-0.10;99.90
49242;DHT22;35079;52.704;13.814;2023-04-03T03:20:46;0.00;99.90
49242;DHT22;35079;52.704;13.814;2023-04-03T03:23:11;-0.10;99.90
49242;DHT22;35079;52.704;13.814;2023-04-03T03:25:40;-0.10;99.90
49242;DHT22;35079;52.704;13.814;2023-04-03T03:28:07;-0.10;99.90
49242;DHT22;35079;52.704;13.814;2023-04-03T03:30:33;-0.10;99.90
49242;DHT22;35079;52.704;13.814;2023-04-03T03:32:59;-0.10;99.90
49242;DHT22;35079;52.704;13.814;2023-04-03T03:35:24;-0.20;99.90
49242;DHT22;35079;52.704;13.814;2023-04-03T03:37:51;-0.20;99.90
49242;DHT22;35079;52.704;13.814;2023-04-03T03:40:16;-0.10;99.90
49242;DHT22;35079;52.704;13.814;2023-04-03T03:42:42;-0.20;99.90
49242;DHT22;35079;52.704;13.814;2023-04-03T03:45:08;-0.20;99.90
49242;DHT22;35079;52.704;13.814;2023-04-03T03:47:34;-0.30;99.90
49242;DHT22;35079;52.704;13.814;2023-04-03T03:49:59;-0.30;99.90
49242;DHT22;35079;52.704;13.814;2023-04-03T03:52:25;-0.20;99.90
49242;DHT22;35079;52.704;13.814;2023-04-03T03:54:51;-0.30;99.90
49242;DHT22;35079;52.704;13.814;2023-04-03T03:57:17;-0.30;99.90
49242;DHT22;35079;52.704;13.814;2023-04-03T03:59:42;-0.30;99.90
49242;DHT22;35079;52.704;13.814;2023-04-03T04:02:10;-0.40;99.90
49242;DHT22;35079;52.704;13.814;2023-04-03T04:04:36;-0.50;99.90
49242;DHT22;35079;52.704;13.814;2023-04-03T04:07:02;-0.40;99.90
49242;DHT22;35079;52.704;13.814;2023-04-03T04:09:28;-0.40;99.90
49242;DHT22;35079;52.704;13.814;2023-04-03T04:11:53;-0.40;99.90
49242;DHT22;35079;52.704;13.814;2023-04-03T04:14:19;-0.40;99.90
49242;DHT22;35079;52.704;13.814;2023-04-03T04:16:48;-0.30;99.90
49242;DHT22;35079;52.704;13.814;2023-04-03T04:19:13;-0.30;99.90
49242;DHT22;35079;52.704;13.814;2023-04-03T04:21:40;-0.30;99.90
49242;DHT22;35079;52.704;13.814;2023-04-03T04:24:07;-0.40;99.90
49242;DHT22;35079;52.704;13.814;2023-04-03T04:26:33;-0.40;99.90
49242;DHT22;35079;52.704;13.814;2023-04-03T04:28:59;-0.30;99.90
49242;DHT22;35079;52.704;13.814;2023-04-03T04:31:25;-0.10;99.90
49242;DHT22;35079;52.704;13.814;2023-04-03T04:33:51;-0.30;99.90
49242;DHT22;35079;52.704;13.814;2023-04-03T04:36:16;-0.30;99.90
49242;DHT22;35079;52.704;13.814;2023-04-03T04:38:42;-0.30;99.90
49242;DHT22;35079;52.704;13.814;2023-04-03T04:41:08;-0.20;99.90
49242;DHT22;35079;52.704;13.814;2023-04-03T04:43:33;-0.20;99.90
49242;DHT22;35079;52.704;13.814;2023-04-03T04:46:08;0.00;99.90
49242;DHT22;35079;52.704;13.814;2023-04-03T04:48:34;-0.20;99.90
49242;DHT22;35079;52.704;13.814;2023-04-03T04:51:01;-0.20;99.90
49242;DHT22;35079;52.704;13.814;2023-04-03T04:53:26;-0.20;99.90
49242;DHT22;35079;52.704;13.814;2023-04-03T04:55:52;-0.20;99.90
49242;DHT22;35079;52.704;13.814;2023-04-03T04:58:18;-0.10;99.90
49242;DHT22;35079;52.704;13.814;2023-04-03T05:00:44;0.00;99.90
49242;DHT22;35079;52.704;13.814;2023-04-03T05:03:10;0.00;99.90
49242;DHT22;35079;52.704;13.814;2023-04-03T05:05:36;0.00;99.90
49242;DHT22;35079;52.704;13.814;2023-04-03T05:08:03;0.10;99.90
49242;DHT22;35079;52.704;13.814;2023-04-03T05:10:29;0.10;99.90
49242;DHT22;35079;52.704;13.814;2023-04-03T05:12:54;0.10;99.90
49242;DHT22;35079;52.704;13.814;2023-04-03T05:15:20;0.10;99.90
49242;DHT22;35079;52.704;13.814;2023-04-03T05:17:46;0.20;99.90
49242;DHT22;35079;52.704;13.814;2023-04-03T05:20:12;0.20;99.90
49242;DHT22;35079;52.704;13.814;2023-04-03T05:22:37;0.30;99.90
49242;DHT22;35079;52.704;13.814;2023-04-03T05:25:04;0.40;99.90
49242;DHT22;35079;52.704;13.814;2023-04-03T05:27:30;0.40;99.90
49242;DHT22;35079;52.704;13.814;2023-04-03T05:29:58;0.50;99.90
49242;DHT22;35079;52.704;13.814;2023-04-03T05:32:25;0.60;99.90
49242;DHT22;35079;52.704;13.814;2023-04-03T05:34:52;0.60;99.90
49242;DHT22;35079;52.704;13.814;2023-04-03T05:37:18;0.70;99.90
49242;DHT22;35079;52.704;13.814;2023-04-03T05:39:45;0.70;99.90
49242;DHT22;35079;52.704;13.814;2023-04-03T05:42:11;0.90;99.90
49242;DHT22;35079;52.704;13.814;2023-04-03T05:44:37;0.80;99.90
49242;DHT22;35079;52.704;13.814;2023-04-03T05:47:03;1.00;99.90
49242;DHT22;35079;52.704;13.814;2023-04-03T05:49:29;1.00;99.90
49242;DHT22;35079;52.704;13.814;2023-04-03T05:51:55;1.30;99.90
49242;DHT22;35079;52.704;13.814;2023-04-03T05:54:24;1.20;99.90
49242;DHT22;35079;52.704;13.814;2023-04-03T05:56:51;1.30;99.90
49242;DHT22;35079;52.704;13.814;2023-04-03T05:59:20;1.50;99.90
49242;DHT22;35079;52.704;13.814;2023-04-03T06:01:46;1.60;99.90
49242;DHT22;35079;52.704;13.814;2023-04-03T06:04:12;1.70;99.90
49242;DHT22;35079;52.704;13.814;2023-04-03T06:06:53;2.00;99.90
49242;DHT22;35079;52.704;13.814;2023-04-03T06:09:22;2.10;99.90
49242;DHT22;35079;52.704;13.814;2023-04-03T06:11:48;2.20;99.90
49242;DHT22;35079;52.704;13.814;2023-04-03T06:14:14;2.20;99.90
49242;DHT22;35079;52.704;13.814;2023-04-03T06:16:40;2.30;99.90
49242;DHT22;35079;52.704;13.814;2023-04-03T06:19:07;2.40;99.90
49242;DHT22;35079;52.704;13.814;2023-04-03T06:21:33;2.40;99.90
49242;DHT22;35079;52.704;13.814;2023-04-03T06:23:59;2.50;99.90
49242;DHT22;35079;52.704;13.814;2023-04-03T06:26:25;2.60;99.90
49242;DHT22;35079;52.704;13.814;2023-04-03T06:28:51;2.70;99.90
49242;DHT22;35079;52.704;13.814;2023-04-03T06:31:17;2.80;99.90
49242;DHT22;35079;52.704;13.814;2023-04-03T06:33:42;2.90;99.90
49242;DHT22;35079;52.704;13.814;2023-04-03T06:36:10;2.80;99.90
49242;DHT22;35079;52.704;13.814;2023-04-03T06:38:35;2.90;99.90
49242;DHT22;35079;52.704;13.814;2023-04-03T06:41:01;3.10;99.90
49242;DHT22;35079;52.704;13.814;2023-04-03T06:43:26;3.20;99.90
49242;DHT22;35079;52.704;13.814;2023-04-03T06:45:52;3.30;99.90
49242;DHT22;35079;52.704;13.814;2023-04-03T06:48:18;3.50;99.90
49242;DHT22;35079;52.704;13.814;2023-04-03T06:50:43;3.60;99.90
49242;DHT22;35079;52.704;13.814;2023-04-03T06:53:10;3.80;99.90
49242;DHT22;35079;52.704;13.814;2023-04-03T06:55:36;4.00;99.90
49242;DHT22;35079;52.704;13.814;2023-04-03T06:58:02;4.10;99.90
49242;DHT22;35079;52.704;13.814;2023-04-03T07:00:29;4.30;99.90
49242;DHT22;35079;52.704;13.814;2023-04-03T07:02:54;4.20;99.90
49242;DHT22;35079;52.704;13.814;2023-04-03T07:05:21;4.00;99.90
49242;DHT22;35079;52.704;13.814;2023-04-03T07:07:47;3.90;99.90
49242;DHT22;35079;52.704;13.814;2023-04-03T07:10:16;4.00;99.90
49242;DHT22;35079;52.704;13.814;2023-04-03T07:12:42;4.20;99.90
49242;DHT22;35079;52.704;13.814;2023-04-03T07:15:08;4.40;99.90
49242;DHT22;35079;52.704;13.814;2023-04-03T07:17:34;4.40;99.90
49242;DHT22;35079;52.704;13.814;2023-04-03T07:20:01;4.30;99.90
49242;DHT22;35079;52.704;13.814;2023-04-03T07:22:27;4.30;99.90
49242;DHT22;35079;52.704;13.814;2023-04-03T07:24:53;4.30;99.90
49242;DHT22;35079;52.704;13.814;2023-04-03T07:27:19;4.30;99.90
49242;DHT22;35079;52.704;13.814;2023-04-03T07:29:45;4.60;99.90
49242;DHT22;35079;52.704;13.814;2023-04-03T07:32:13;4.70;99.90
49242;DHT22;35079;52.704;13.814;2023-04-03T07:34:39;4.30;99.90
49242;DHT22;35079;52.704;13.814;2023-04-03T07:37:04;4.50;99.90
49242;DHT22;35079;52.704;13.814;2023-04-03T07:39:31;4.50;99.90
49242;DHT22;35079;52.704;13.814;2023-04-03T07:41:57;4.70;99.90
49242;DHT22;35079;52.704;13.814;2023-04-03T07:44:23;4.70;99.90
49242;DHT22;35079;52.704;13.814;2023-04-03T07:46:49;4.90;99.90
49242;DHT22;35079;52.704;13.814;2023-04-03T07:49:16;4.80;99.90
49242;DHT22;35079;52.704;13.814;2023-04-03T07:51:43;4.90;99.90
49242;DHT22;35079;52.704;13.814;2023-04-03T07:54:09;4.90;99.90
49242;DHT22;35079;52.704;13.814;2023-04-03T07:56:36;5.10;99.90
49242;DHT22;35079;52.704;13.814;2023-04-03T07:59:02;5.30;99.80
49242;DHT22;35079;52.704;13.814;2023-04-03T08:01:28;5.40;99.90
49242;DHT22;35079;52.704;13.814;2023-04-03T08:03:54;5.30;99.10
49242;DHT22;35079;52.704;13.814;2023-04-03T08:06:19;4.90;99.30
49242;DHT22;35079;52.704;13.814;2023-04-03T08:08:45;4.70;99.10
49242;DHT22;35079;52.704;13.814;2023-04-03T08:11:11;4.80;97.90
49242;DHT22;35079;52.704;13.814;2023-04-03T08:13:37;4.80;99.10
49242;DHT22;35079;52.704;13.814;2023-04-03T08:16:16;4.70;98.30
49242;DHT22;35079;52.704;13.814;2023-04-03T08:18:42;4.90;97.90
49242;DHT22;35079;52.704;13.814;2023-04-03T08:21:09;4.90;96.40
49242;DHT22;35079;52.704;13.814;2023-04-03T08:23:36;4.60;97.60
49242;DHT22;35079;52.704;13.814;2023-04-03T08:26:14;4.90;97.60
49242;DHT22;35079;52.704;13.814;2023-04-03T08:28:40;5.50;98.70
49242;DHT22;35079;52.704;13.814;2023-04-03T08:31:11;6.50;97.20
49242;DHT22;35079;52.704;13.814;2023-04-03T08:33:38;7.50;93.60
49242;DHT22;35079;52.704;13.814;2023-04-03T08:36:06;7.60;91.10
49242;DHT22;35079;52.704;13.814;2023-04-03T08:38:33;7.40;90.40
49242;DHT22;35079;52.704;13.814;2023-04-03T08:41:07;7.40;87.20
49242;DHT22;35079;52.704;13.814;2023-04-03T08:49:16;6.60;89.90
49242;DHT22;35079;52.704;13.814;2023-04-03T08:51:45;6.70;88.30
49242;DHT22;35079;52.704;13.814;2023-04-03T08:54:28;6.20;87.70
49242;DHT22;35079;52.704;13.814;2023-04-03T08:56:55;6.00;88.90
49242;DHT22;35079;52.704;13.814;2023-04-03T08:59:28;6.10;90.70
49242;DHT22;35079;52.704;13.814;2023-04-03T09:01:58;6.30;87.80
49242;DHT22;35079;52.704;13.814;2023-04-03T09:04:26;6.00;89.20
49242;DHT22;35079;52.704;13.814;2023-04-03T09:06:57;6.10;89.10
49242;DHT22;35079;52.704;13.814;2023-04-03T09:09:53;6.10;90.00
49242;DHT22;35079;52.704;13.814;2023-04-03T09:12:36;6.10;90.60
49242;DHT22;35079;52.704;13.814;2023-04-03T09:18:09;5.70;91.70
49242;DHT22;35079;52.704;13.814;2023-04-03T09:20:48;5.70;92.20
49242;DHT22;35079;52.704;13.814;2023-04-03T09:23:24;6.10;92.00
49242;DHT22;35079;52.704;13.814;2023-04-03T09:25:51;6.20;91.10
49242;DHT22;35079;52.704;13.814;2023-04-03T09:28:18;6.10;90.20
49242;DHT22;35079;52.704;13.814;2023-04-03T09:30:44;5.80;90.20
49242;DHT22;35079;52.704;13.814;2023-04-03T09:33:11;5.90;90.70
49242;DHT22;35079;52.704;13.814;2023-04-03T09:35:37;6.10;92.30
49242;DHT22;35079;52.704;13.814;2023-04-03T09:40:42;7.60;90.50
49242;DHT22;35079;52.704;13.814;2023-04-03T09:45:47;7.20;85.50
49242;DHT22;35079;52.704;13.814;2023-04-03T09:53:35;6.00;88.30
49242;DHT22;35079;52.704;13.814;2023-04-03T09:56:05;6.10;89.90
49242;DHT22;35079;52.704;13.814;2023-04-03T09:58:37;6.30;90.80
49242;DHT22;35079;52.704;13.814;2023-04-03T10:01:03;6.60;90.90
49242;DHT22;35079;52.704;13.814;2023-04-03T10:03:32;7.20;91.20
49242;DHT22;35079;52.704;13.814;2023-04-03T10:05:58;7.30;90.40
49242;DHT22;35079;52.704;13.814;2023-04-03T10:08:31;7.00;87.30
49242;DHT22;35079;52.704;13.814;2023-04-03T10:11:12;6.50;88.90
49242;DHT22;35079;52.704;13.814;2023-04-03T10:13:55;6.50;87.70
49242;DHT22;35079;52.704;13.814;2023-04-03T10:16:52;6.00;89.20
49242;DHT22;35079;52.704;13.814;2023-04-03T10:19:44;6.00;90.20
49242;DHT22;35079;52.704;13.814;2023-04-03T10:22:13;5.90;90.90
49242;DHT22;35079;52.704;13.814;2023-04-03T10:25:02;5.90;89.80
49242;DHT22;35079;52.704;13.814;2023-04-03T10:27:55;6.00;90.40
49242;DHT22;35079;52.704;13.814;2023-04-03T10:30:33;5.90;90.00
49242;DHT22;35079;52.704;13.814;2023-04-03T10:44:36;5.40;92.40
49242;DHT22;35079;52.704;13.814;2023-04-03T10:47:15;5.50;93.40
49242;DHT22;35079;52.704;13.814;2023-04-03T10:49:56;5.60;92.30
49242;DHT22;35079;52.704;13.814;2023-04-03T10:52:39;5.80;92.00
49242;DHT22;35079;52.704;13.814;2023-04-03T10:55:36;5.80;90.60
49242;DHT22;35079;52.704;13.814;2023-04-03T10:58:05;6.00;91.20
49242;DHT22;35079;52.704;13.814;2023-04-03T11:00:43;6.40;91.90
49242;DHT22;35079;52.704;13.814;2023-04-03T11:03:36;6.70;90.70
49242;DHT22;35079;52.704;13.814;2023-04-03T11:06:02;7.10;91.90
49242;DHT22;35079;52.704;13.814;2023-04-03T11:11:32;8.10;87.20
49242;DHT22;35079;52.704;13.814;2023-04-03T11:19:57;8.10;83.10
49242;DHT22;35079;52.704;13.814;2023-04-03T11:22:34;7.90;81.30
49242;DHT22;35079;52.704;13.814;2023-04-03T11:28:00;7.40;84.20
49242;DHT22;35079;52.704;13.814;2023-04-03T11:30:42;7.30;82.10
49242;DHT22;35079;52.704;13.814;2023-04-03T11:35:57;7.60;81.00
49242;DHT22;35079;52.704;13.814;2023-04-03T11:38:28;7.80;81.80
49242;DHT22;35079;52.704;13.814;2023-04-03T11:40:56;8.00;80.50
49242;DHT22;35079;52.704;13.814;2023-04-03T11:43:27;7.60;80.00
49242;DHT22;35079;52.704;13.814;2023-04-03T11:51:02;7.10;81.10
49242;DHT22;35079;52.704;13.814;2023-04-03T11:53:31;7.10;81.20
49242;DHT22;35079;52.704;13.814;2023-04-03T12:01:51;7.10;83.10
49242;DHT22;35079;52.704;13.814;2023-04-03T12:04:20;7.20;85.30
49242;DHT22;35079;52.704;13.814;2023-04-03T12:10:13;7.40;81.20
49242;DHT22;35079;52.704;13.814;2023-04-03T12:12:34;7.40;82.70
49242;DHT22;35079;52.704;13.814;2023-04-03T12:15:17;7.20;83.00
49242;DHT22;35079;52.704;13.814;2023-04-03T12:17:44;7.10;82.50
49242;DHT22;35079;52.704;13.814;2023-04-03T12:24:02;6.90;87.10
49242;DHT22;35079;52.704;13.814;2023-04-03T12:26:51;7.20;86.70
49242;DHT22;35079;52.704;13.814;2023-04-03T12:35:28;8.80;79.20
49242;DHT22;35079;52.704;13.814;2023-04-03T12:43:16;7.60;81.80
49242;DHT22;35079;52.704;13.814;2023-04-03T12:46:09;7.50;83.60
49242;DHT22;35079;52.704;13.814;2023-04-03T12:51:34;7.20;86.60
49242;DHT22;35079;52.704;13.814;2023-04-03T12:54:13;7.40;86.40
49242;DHT22;35079;52.704;13.814;2023-04-03T12:56:39;7.70;83.30
49242;DHT22;35079;52.704;13.814;2023-04-03T12:59:25;7.30;81.80
49242;DHT22;35079;52.704;13.814;2023-04-03T13:01:59;7.40;85.10
49242;DHT22;35079;52.704;13.814;2023-04-03T13:04:27;7.50;85.20
49242;DHT22;35079;52.704;13.814;2023-04-03T13:06:53;7.60;85.30
49242;DHT22;35079;52.704;13.814;2023-04-03T13:09:21;7.90;85.90
49242;DHT22;35079;52.704;13.814;2023-04-03T13:11:52;8.10;86.60
49242;DHT22;35079;52.704;13.814;2023-04-03T13:14:23;8.40;85.80
49242;DHT22;35079;52.704;13.814;2023-04-03T13:17:10;8.30;84.90
49242;DHT22;35079;52.704;13.814;2023-04-03T13:19:38;8.00;84.00
49242;DHT22;35079;52.704;13.814;2023-04-03T13:22:11;7.80;84.90
49242;DHT22;35079;52.704;13.814;2023-04-03T13:24:40;7.90;85.40
49242;DHT22;35079;52.704;13.814;2023-04-03T13:27:06;7.80;88.00
49242;DHT22;35079;52.704;13.814;2023-04-03T13:29:35;8.10;87.10
49242;DHT22;35079;52.704;13.814;2023-04-03T13:32:03;8.60;84.40
49242;DHT22;35079;52.704;13.814;2023-04-03T13:34:38;9.20;85.30
49242;DHT22;35079;52.704;13.814;2023-04-03T13:37:06;9.50;80.10
49242;DHT22;35079;52.704;13.814;2023-04-03T13:39:36;9.40;81.30
49242;DHT22;35079;52.704;13.814;2023-04-03T13:42:25;9.00;80.90
49242;DHT22;35079;52.704;13.814;2023-04-03T13:45:24;8.50;82.70
49242;DHT22;35079;52.704;13.814;2023-04-03T13:48:06;8.10;83.00
49242;DHT22;35079;52.704;13.814;2023-04-03T13:50:33;8.00;84.00
49242;DHT22;35079;52.704;13.814;2023-04-03T13:53:11;7.30;84.80
49242;DHT22;35079;52.704;13.814;2023-04-03T13:55:51;6.90;88.20
49242;DHT22;35079;52.704;13.814;2023-04-03T13:58:23;6.80;88.50
49242;DHT22;35079;52.704;13.814;2023-04-03T14:01:19;7.00;87.90
49242;DHT22;35079;52.704;13.814;2023-04-03T14:04:00;6.50;90.00
49242;DHT22;35079;52.704;13.814;2023-04-03T14:06:27;6.10;90.70
49242;DHT22;35079;52.704;13.814;2023-04-03T14:08:53;6.10;91.10
49242;DHT22;35079;52.704;13.814;2023-04-03T14:11:26;6.20;91.60
49242;DHT22;35079;52.704;13.814;2023-04-03T14:14:02;5.90;91.00
49242;DHT22;35079;52.704;13.814;2023-04-03T14:16:33;5.90;91.50
49242;DHT22;35079;52.704;13.814;2023-04-03T14:19:02;5.90;90.80
49242;DHT22;35079;52.704;13.814;2023-04-03T14:21:28;5.60;91.90
49242;DHT22;35079;52.704;13.814;2023-04-03T14:23:53;5.50;92.50
49242;DHT22;35079;52.704;13.814;2023-04-03T14:26:21;5.80;92.50
49242;DHT22;35079;52.704;13.814;2023-04-03T14:28:49;5.70;92.70
49242;DHT22;35079;52.704;13.814;2023-04-03T14:31:16;5.70;92.40
49242;DHT22;35079;52.704;13.814;2023-04-03T14:33:43;5.60;92.00
49242;DHT22;35079;52.704;13.814;2023-04-03T14:38:40;5.60;92.40
49242;DHT22;35079;52.704;13.814;2023-04-03T14:41:06;5.70;92.60
49242;DHT22;35079;52.704;13.814;2023-04-03T14:43:32;5.60;91.80
49242;DHT22;35079;52.704;13.814;2023-04-03T14:45:57;5.60;92.50
49242;DHT22;35079;52.704;13.814;2023-04-03T14:48:26;5.50;91.80
49242;DHT22;35079;52.704;13.814;2023-04-03T14:50:53;5.50;92.60
49242;DHT22;35079;52.704;13.814;2023-04-03T14:53:19;5.60;92.30
49242;DHT22;35079;52.704;13.814;2023-04-03T14:55:48;5.80;93.20
49242;DHT22;35079;52.704;13.814;2023-04-03T14:58:16;5.90;92.40
49242;DHT22;35079;52.704;13.814;2023-04-03T15:00:43;6.40;91.70
49242;DHT22;35079;52.704;13.814;2023-04-03T15:03:20;6.70;90.50
49242;DHT22;35079;52.704;13.814;2023-04-03T15:05:47;6.80;91.80
49242;DHT22;35079;52.704;13.814;2023-04-03T15:08:33;7.00;90.50
49242;DHT22;35079;52.704;13.814;2023-04-03T15:10:59;6.90;90.60
49242;DHT22;35079;52.704;13.814;2023-04-03T15:13:26;6.80;88.70
49242;DHT22;35079;52.704;13.814;2023-04-03T15:15:52;6.80;89.60
49242;DHT22;35079;52.704;13.814;2023-04-03T15:18:24;6.60;86.80
49242;DHT22;35079;52.704;13.814;2023-04-03T15:20:51;6.50;89.30
49242;DHT22;35079;52.704;13.814;2023-04-03T15:23:17;6.40;90.30
49242;DHT22;35079;52.704;13.814;2023-04-03T15:25:45;6.50;90.70
49242;DHT22;35079;52.704;13.814;2023-04-03T15:28:37;6.40;91.00
49242;DHT22;35079;52.704;13.814;2023-04-03T15:31:04;6.10;91.20
49242;DHT22;35079;52.704;13.814;2023-04-03T15:33:32;5.90;90.20
49242;DHT22;35079;52.704;13.814;2023-04-03T15:35:58;5.80;92.40
49242;DHT22;35079;52.704;13.814;2023-04-03T15:38:24;5.90;92.30
49242;DHT22;35079;52.704;13.814;2023-04-03T15:40:50;5.80;91.70
49242;DHT22;35079;52.704;13.814;2023-04-03T15:43:16;5.50;92.20
49242;DHT22;35079;52.704;13.814;2023-04-03T15:45:42;5.60;91.00
49242;DHT22;35079;52.704;13.814;2023-04-03T15:48:09;5.60;91.10
49242;DHT22;35079;52.704;13.814;2023-04-03T15:50:36;5.40;92.10
49242;DHT22;35079;52.704;13.814;2023-04-03T15:53:02;5.50;92.00
49242;DHT22;35079;52.704;13.814;2023-04-03T15:55:32;5.60;92.20
49242;DHT22;35079;52.704;13.814;2023-04-03T15:57:58;5.60;92.30
49242;DHT22;35079;52.704;13.814;2023-04-03T16:00:24;5.60;92.40
49242;DHT22;35079;52.704;13.814;2023-04-03T16:02:56;5.70;92.50
49242;DHT22;35079;52.704;13.814;2023-04-03T16:05:23;5.70;92.40
49242;DHT22;35079;52.704;13.814;2023-04-03T16:07:48;5.70;92.40
49242;DHT22;35079;52.704;13.814;2023-04-03T16:10:16;5.70;93.00
49242;DHT22;35079;52.704;13.814;2023-04-03T16:12:42;5.60;92.80
49242;DHT22;35079;52.704;13.814;2023-04-03T16:15:17;5.70;92.90
49242;DHT22;35079;52.704;13.814;2023-04-03T16:17:43;5.60;93.30
49242;DHT22;35079;52.704;13.814;2023-04-03T16:20:22;5.70;93.30
49242;DHT22;35079;52.704;13.814;2023-04-03T16:22:49;5.50;93.90
49242;DHT22;35079;52.704;13.814;2023-04-03T16:25:15;5.40;93.50
49242;DHT22;35079;52.704;13.814;2023-04-03T16:27:40;5.30;93.80
49242;DHT22;35079;52.704;13.814;2023-04-03T16:30:07;5.30;93.90
49242;DHT22;35079;52.704;13.814;2023-04-03T16:32:33;5.40;93.80
49242;DHT22;35079;52.704;13.814;2023-04-03T16:35:00;5.20;94.40
49242;DHT22;35079;52.704;13.814;2023-04-03T16:37:25;5.10;95.00
49242;DHT22;35079;52.704;13.814;2023-04-03T16:39:51;5.10;94.10
49242;DHT22;35079;52.704;13.814;2023-04-03T16:42:17;4.80;95.80
49242;DHT22;35079;52.704;13.814;2023-04-03T16:44:43;4.90;94.70
49242;DHT22;35079;52.704;13.814;2023-04-03T16:47:09;4.90;95.10
49242;DHT22;35079;52.704;13.814;2023-04-03T16:49:35;4.90;93.90
49242;DHT22;35079;52.704;13.814;2023-04-03T16:52:02;4.50;94.30
49242;DHT22;35079;52.704;13.814;2023-04-03T16:54:28;4.70;94.90
49242;DHT22;35079;52.704;13.814;2023-04-03T16:56:53;4.60;94.80
49242;DHT22;35079;52.704;13.814;2023-04-03T16:59:19;4.60;94.80
49242;DHT22;35079;52.704;13.814;2023-04-03T17:01:45;4.70;94.70
49242;DHT22;35079;52.704;13.814;2023-04-03T17:04:11;4.60;94.80
49242;DHT22;35079;52.704;13.814;2023-04-03T17:06:38;4.50;94.80
49242;DHT22;35079;52.704;13.814;2023-04-03T17:09:03;4.40;95.50
49242;DHT22;35079;52.704;13.814;2023-04-03T17:11:30;4.50;95.80
49242;DHT22;35079;52.704;13.814;2023-04-03T17:13:56;4.40;95.80